Time;durP1;ratioP1;P1;durP2;ratioP2;P2;SDS_P1;SDS_P2;PMS_P1;PMS_P2;Temp;Humidity;BMP_temperature;BMP_pressure;BME280_temperature;BME280_humidity;BME280_pressure;Samples;Min_cycle;Max_cycle;Signal;HPM_P1;HPM_P2
2023/08/11 00:01:38;;;;;;;0.60;0.60;;;17.60;99.90;;;;;;5009848;28;20100;-72
2023/08/11 00:04:04;;;;;;;0.40;0.40;;;17.50;99.90;;;;;;5000999;28;20048;-72
2023/08/11 00:06:30;;;;;;;0.20;0.20;;;17.60;99.90;;;;;;5009171;28;20116;-72
2023/08/11 00:08:56;;;;;;;0.52;0.52;;;17.50;99.90;;;;;;5013844;28;20486;-72
2023/08/11 00:11:22;;;;;;;0.30;0.30;;;17.60;99.90;;;;;;5005078;28;20560;-71
2023/08/11 00:13:49;;;;;;;0.50;0.50;;;;;;;;;;5009017;28;20398;-72
2023/08/11 00:16:15;;;;;;;0.30;0.30;;;17.40;99.90;;;;;;5012909;28;20033;-71
2023/08/11 00:18:41;;;;;;;0.60;0.60;;;17.30;99.90;;;;;;5011408;28;20033;-71
2023/08/11 00:21:07;;;;;;;0.40;0.40;;;17.40;99.90;;;;;;4994788;28;20125;-71
2023/08/11 00:23:35;;;;;;;0.60;0.60;;;17.40;99.90;;;;;;4997297;28;20569;-72
2023/08/11 00:26:01;;;;;;;0.52;0.52;;;17.20;99.90;;;;;;5010614;28;20116;-71
2023/08/11 00:28:27;;;;;;;0.68;0.68;;;17.20;99.90;;;;;;5017753;28;20038;-71
2023/08/11 00:30:54;;;;;;;0.40;0.40;;;17.30;99.90;;;;;;5013598;28;20046;-73
2023/08/11 00:33:20;;;;;;;0.30;0.30;;;17.30;99.90;;;;;;5017481;28;20037;-70
2023/08/11 00:35:45;;;;;;;0.40;0.40;;;16.90;99.90;;;;;;4988591;28;20519;-72
2023/08/11 00:38:11;;;;;;;0.75;0.75;;;16.90;99.90;;;;;;5010471;28;20049;-71
2023/08/11 00:40:37;;;;;;;0.30;0.30;;;16.80;99.90;;;;;;4987741;28;20042;-71
2023/08/11 00:43:03;;;;;;;0.30;0.30;;;16.80;99.90;;;;;;5004638;28;20394;-73
2023/08/11 00:45:30;;;;;;;0.98;0.90;;;16.80;99.90;;;;;;5015220;28;20041;-72
2023/08/11 00:47:56;;;;;;;0.50;0.50;;;16.40;99.90;;;;;;5000336;28;20056;-72
2023/08/11 00:50:22;;;;;;;0.50;0.40;;;16.80;99.90;;;;;;5015647;28;20403;-71
2023/08/11 00:52:49;;;;;;;0.30;0.30;;;;;;;;;;5011063;28;20037;-72
2023/08/11 00:55:18;;;;;;;0.50;0.50;;;16.40;99.90;;;;;;5015754;28;20030;-72
2023/08/11 00:57:46;;;;;;;0.30;0.30;;;16.60;99.90;;;;;;5011644;28;20038;-72
2023/08/11 01:00:13;;;;;;;0.35;0.35;;;16.40;99.90;;;;;;5011616;28;20030;-73
2023/08/11 01:02:43;;;;;;;0.40;0.40;;;16.40;99.90;;;;;;5009549;28;20045;-72
2023/08/11 01:05:15;;;;;;;0.63;0.63;;;16.00;99.90;;;;;;4997323;28;20045;-72
2023/08/11 01:07:53;;;;;;;0.40;0.40;;;16.00;99.90;;;;;;5007438;28;20097;-72
2023/08/11 01:10:28;;;;;;;0.63;0.63;;;16.10;99.90;;;;;;5004992;28;20037;-72
2023/08/11 01:13:06;;;;;;;0.63;0.63;;;15.80;99.90;;;;;;5007744;28;20054;-72
2023/08/11 01:15:40;;;;;;;0.30;0.30;;;15.80;99.90;;;;;;5019932;28;20489;-72
2023/08/11 01:18:07;;;;;;;0.90;0.90;;;15.60;99.90;;;;;;5009507;28;20465;-72
2023/08/11 01:20:34;;;;;;;0.30;0.30;;;15.70;99.90;;;;;;5009453;28;20425;-72
2023/08/11 01:23:01;;;;;;;1.37;1.27;;;15.60;99.90;;;;;;5012404;28;20038;-72
2023/08/11 01:25:29;;;;;;;0.43;0.43;;;15.90;99.90;;;;;;5004206;28;20304;-72
2023/08/11 01:27:59;;;;;;;0.20;0.20;;;15.80;99.90;;;;;;5011139;28;20044;-72
2023/08/11 01:30:26;;;;;;;0.40;0.40;;;15.70;99.90;;;;;;5003477;28;20447;-71
2023/08/11 01:32:52;;;;;;;0.70;0.70;;;15.60;99.90;;;;;;4992498;28;20086;-72
2023/08/11 01:35:24;;;;;;;0.55;0.55;;;15.30;99.90;;;;;;5008866;28;20034;-72
2023/08/11 01:37:50;;;;;;;0.40;0.40;;;15.20;99.90;;;;;;5008302;28;20173;-71
2023/08/11 01:40:16;;;;;;;0.35;0.35;;;;;;;;;;5015731;28;20124;-72
2023/08/11 01:42:43;;;;;;;0.55;0.55;;;15.40;99.90;;;;;;5010964;28;20034;-72
2023/08/11 01:45:11;;;;;;;1.00;0.67;;;15.60;99.90;;;;;;5020013;28;20100;-71
2023/08/11 01:47:38;;;;;;;0.45;0.45;;;15.00;99.90;;;;;;5002351;28;20053;-71
2023/08/11 01:50:06;;;;;;;0.57;0.57;;;14.90;99.90;;;;;;5012357;28;20121;-71
2023/08/11 01:52:35;;;;;;;0.20;0.20;;;15.20;99.90;;;;;;5014183;28;20437;-72
2023/08/11 01:55:01;;;;;;;0.50;0.50;;;15.00;99.90;;;;;;4998184;28;20553;-72
2023/08/11 01:57:27;;;;;;;0.30;0.30;;;15.00;99.90;;;;;;5011985;28;20124;-72
2023/08/11 01:59:52;;;;;;;0.40;0.40;;;15.20;99.90;;;;;;5008780;28;20116;-71
2023/08/11 02:02:18;;;;;;;0.75;0.73;;;15.10;99.90;;;;;;4994922;28;20129;-72
2023/08/11 02:04:45;;;;;;;0.40;0.40;;;14.90;99.90;;;;;;5005310;28;20152;-71
2023/08/11 02:07:10;;;;;;;1.38;0.70;;;14.80;99.90;;;;;;5015808;28;20540;-72
2023/08/11 02:09:36;;;;;;;0.40;0.40;;;14.70;99.90;;;;;;5024700;28;20068;-70
2023/08/11 02:12:02;;;;;;;0.32;0.32;;;14.70;99.90;;;;;;5021739;28;20398;-71
2023/08/11 02:14:40;;;;;;;0.30;0.30;;;14.70;99.90;;;;;;5008999;28;20383;-70
2023/08/11 02:17:06;;;;;;;;;;;14.70;99.90;;;;;;4992376;28;20589;-71
2023/08/11 02:19:32;;;;;;;0.70;0.60;;;14.80;99.90;;;;;;5008432;28;19937;-70
2023/08/11 02:21:57;;;;;;;0.75;0.75;;;14.60;99.90;;;;;;5009421;28;20049;-72
2023/08/11 02:24:23;;;;;;;0.73;0.73;;;14.70;99.90;;;;;;5008005;28;20037;-72
2023/08/11 02:26:49;;;;;;;0.45;0.45;;;14.50;99.90;;;;;;4999969;28;20060;-72
2023/08/11 02:29:14;;;;;;;0.52;0.52;;;14.40;99.90;;;;;;5009758;28;20478;-72
2023/08/11 02:31:40;;;;;;;0.43;0.43;;;14.50;99.90;;;;;;5003236;28;20470;-72
2023/08/11 02:34:06;;;;;;;0.40;0.40;;;14.50;99.90;;;;;;5001553;28;20527;-72
2023/08/11 02:36:31;;;;;;;0.25;0.25;;;14.40;99.90;;;;;;5007974;28;20095;-72
2023/08/11 02:38:57;;;;;;;0.55;0.50;;;14.60;99.90;;;;;;4984028;28;20381;-72
2023/08/11 02:41:23;;;;;;;0.30;0.30;;;14.30;99.90;;;;;;4989656;28;20030;-72
2023/08/11 02:43:49;;;;;;;0.38;0.38;;;14.50;99.90;;;;;;5019738;28;20115;-72
2023/08/11 02:46:15;;;;;;;0.40;0.40;;;14.40;99.90;;;;;;5013852;28;20508;-72
2023/08/11 02:48:41;;;;;;;0.35;0.35;;;14.10;99.90;;;;;;5009442;28;20041;-72
2023/08/11 02:51:07;;;;;;;0.40;0.40;;;14.30;99.90;;;;;;5007893;28;20413;-72
2023/08/11 02:53:33;;;;;;;0.45;0.40;;;14.10;99.90;;;;;;5014005;28;20029;-72
2023/08/11 02:56:01;;;;;;;0.88;0.45;;;14.30;99.90;;;;;;5009723;28;20049;-72
2023/08/11 02:58:28;;;;;;;0.47;0.47;;;14.20;99.90;;;;;;5000948;28;20053;-72
2023/08/11 03:00:53;;;;;;;0.40;0.40;;;14.30;99.90;;;;;;5005444;28;20049;-71
2023/08/11 03:03:19;;;;;;;0.40;0.40;;;14.20;99.90;;;;;;5006865;28;20446;-72
2023/08/11 03:05:45;;;;;;;1.00;1.00;;;14.00;99.90;;;;;;4989049;28;20041;-71
2023/08/11 03:08:11;;;;;;;0.55;0.55;;;14.00;99.90;;;;;;5007511;28;20034;-72
2023/08/11 03:10:36;;;;;;;0.45;0.45;;;14.10;99.90;;;;;;5007588;28;20045;-72
2023/08/11 03:13:02;;;;;;;0.40;0.40;;;14.00;99.90;;;;;;4989268;28;20176;-72
2023/08/11 03:15:28;;;;;;;0.40;0.40;;;13.60;99.90;;;;;;5003991;28;20041;-72
2023/08/11 03:17:54;;;;;;;0.45;0.45;;;13.90;99.90;;;;;;5006073;28;20038;-71
2023/08/11 03:23:42;;;;;;;1.95;0.40;;;13.70;99.90;;;;;;5008927;28;20040;-73
2023/08/11 03:26:09;;;;;;;0.30;0.30;;;13.80;99.90;;;;;;5007224;28;20037;-71
2023/08/11 03:28:35;;;;;;;1.08;0.80;;;14.00;99.90;;;;;;5000660;28;20037;-72
2023/08/11 03:31:01;;;;;;;0.32;0.32;;;13.60;99.90;;;;;;5001719;28;20125;-71
2023/08/11 03:33:26;;;;;;;0.40;0.40;;;13.70;99.90;;;;;;5011565;28;20191;-71
2023/08/11 03:35:52;;;;;;;0.65;0.65;;;13.80;99.90;;;;;;5022048;28;20525;-72
2023/08/11 03:38:18;;;;;;;0.70;0.70;;;14.10;99.90;;;;;;5034442;28;20060;-71
2023/08/11 03:40:43;;;;;;;0.40;0.40;;;13.60;99.90;;;;;;5017097;28;20037;-71
2023/08/11 03:43:09;;;;;;;0.47;0.47;;;13.70;99.90;;;;;;5015605;28;20041;-72
2023/08/11 03:45:35;;;;;;;0.63;0.52;;;13.50;99.90;;;;;;4990271;28;20053;-71
2023/08/11 03:48:02;;;;;;;0.45;0.45;;;;;;;;;;5006409;28;20061;-72
2023/08/11 03:50:27;;;;;;;0.40;0.40;;;13.40;99.90;;;;;;5009927;28;20060;-72
2023/08/11 03:52:53;;;;;;;0.40;0.40;;;13.40;99.90;;;;;;5010569;28;20482;-71
2023/08/11 03:55:18;;;;;;;0.30;0.30;;;13.40;99.90;;;;;;5011584;28;20044;-71
2023/08/11 03:57:45;;;;;;;0.40;0.40;;;13.60;99.90;;;;;;5021698;28;20568;-72
2023/08/11 04:00:15;;;;;;;0.40;0.40;;;13.30;99.90;;;;;;5013673;28;20128;-71
2023/08/11 04:02:43;;;;;;;0.55;0.55;;;13.40;99.90;;;;;;5009018;28;20064;-72
2023/08/11 04:05:10;;;;;;;0.70;0.70;;;;;;;;;;5007430;28;20243;-71
2023/08/11 04:07:36;;;;;;;0.57;0.57;;;13.50;99.90;;;;;;5026537;28;20103;-72
2023/08/11 04:10:04;;;;;;;0.30;0.30;;;13.70;99.90;;;;;;5016443;28;20204;-72
2023/08/11 04:12:33;;;;;;;0.30;0.30;;;13.50;99.90;;;;;;4998502;28;20034;-72
2023/08/11 04:14:59;;;;;;;0.40;0.40;;;13.40;99.90;;;;;;5016935;28;20045;-70
2023/08/11 04:17:26;;;;;;;0.30;0.30;;;13.40;99.90;;;;;;5016920;28;20057;-69
2023/08/11 04:19:55;;;;;;;0.75;0.65;;;13.40;99.90;;;;;;5014042;28;20034;-70
2023/08/11 04:22:21;;;;;;;0.40;0.40;;;13.10;99.90;;;;;;5009630;28;20076;-71
2023/08/11 04:24:46;;;;;;;0.60;0.60;;;13.40;99.90;;;;;;4994211;28;20116;-72
2023/08/11 04:27:12;;;;;;;0.30;0.30;;;13.50;99.90;;;;;;5002919;28;20042;-69
2023/08/11 04:29:38;;;;;;;0.30;0.30;;;13.80;99.90;;;;;;5010551;28;20038;-70
2023/08/11 04:32:04;;;;;;;0.40;0.40;;;13.60;99.90;;;;;;4994032;28;20077;-70
2023/08/11 04:34:33;;;;;;;0.40;0.40;;;13.80;99.90;;;;;;5010959;28;20420;-70
2023/08/11 04:36:59;;;;;;;0.60;0.60;;;13.50;99.90;;;;;;5012870;28;20052;-70
2023/08/11 04:39:25;;;;;;;0.30;0.30;;;13.50;99.90;;;;;;5000919;28;20081;-70
2023/08/11 04:41:51;;;;;;;0.40;0.40;;;13.50;99.90;;;;;;4992815;28;20046;-70
2023/08/11 04:44:17;;;;;;;0.40;0.40;;;13.50;99.90;;;;;;5008237;28;20073;-70
2023/08/11 04:46:42;;;;;;;0.40;0.40;;;13.90;99.90;;;;;;5009911;28;20042;-70
2023/08/11 04:49:27;;;;;;;0.40;0.40;;;13.80;99.90;;;;;;5010305;28;20139;-70
2023/08/11 04:51:52;;;;;;;1.85;0.82;;;13.80;99.90;;;;;;5010195;28;20056;-70
2023/08/11 04:54:18;;;;;;;0.30;0.30;;;13.90;99.90;;;;;;5011497;28;20418;-70
2023/08/11 04:56:44;;;;;;;0.25;0.25;;;14.00;99.90;;;;;;5019429;28;20037;-70
2023/08/11 04:59:10;;;;;;;0.60;0.60;;;14.10;99.90;;;;;;5009509;28;20089;-70
2023/08/11 05:01:37;;;;;;;0.50;0.50;;;;;;;;;;4999251;28;20481;-70
2023/08/11 05:04:04;;;;;;;0.30;0.30;;;13.80;99.90;;;;;;5008578;28;20046;-70
2023/08/11 05:06:31;;;;;;;0.40;0.40;;;14.10;99.90;;;;;;5007018;28;20480;-70
2023/08/11 05:08:57;;;;;;;1.48;0.50;;;14.10;99.90;;;;;;5001981;28;20604;-70
2023/08/11 05:11:23;;;;;;;0.47;0.47;;;14.20;99.90;;;;;;5013818;28;20038;-70
2023/08/11 05:13:48;;;;;;;1.65;0.52;;;14.10;99.90;;;;;;5013764;28;20036;-70
2023/08/11 05:16:14;;;;;;;0.30;0.30;;;14.40;99.90;;;;;;5021072;28;20038;-70
2023/08/11 05:18:39;;;;;;;0.30;0.30;;;14.80;99.90;;;;;;5009973;28;20048;-70
2023/08/11 05:21:05;;;;;;;0.32;0.32;;;14.40;99.90;;;;;;5017706;28;20051;-70
2023/08/11 05:23:32;;;;;;;0.30;0.30;;;14.60;99.90;;;;;;5010472;28;20620;-70
2023/08/11 05:25:58;;;;;;;0.52;0.52;;;14.90;99.90;;;;;;5023794;28;20127;-70
2023/08/11 05:40:40;;;;;;;0.40;0.40;;;;;;;;;;5166789;23;20054;-70
2023/08/11 05:43:06;;;;;;;0.45;0.45;;;;;;;;;;4997728;28;20573;-69
2023/08/11 05:48:54;;;;;;;0.70;0.70;;;15.00;99.90;;;;;;4983294;28;20564;-72
2023/08/11 05:51:20;;;;;;;0.40;0.40;;;15.70;99.90;;;;;;4972895;28;20034;-70
2023/08/11 05:53:47;;;;;;;0.57;0.57;;;15.30;99.90;;;;;;4975834;28;20042;-72
2023/08/11 05:56:12;;;;;;;0.73;0.55;;;15.80;99.90;;;;;;4994549;28;20039;-72
2023/08/11 05:58:38;;;;;;;0.43;0.43;;;;;;;;;;4983981;28;20096;-72
2023/08/11 06:01:04;;;;;;;1.15;0.75;;;16.10;99.90;;;;;;4970439;28;20592;-72
2023/08/11 06:03:30;;;;;;;0.60;0.60;;;15.90;99.90;;;;;;4974703;28;20087;-72
2023/08/11 06:06:06;;;;;;;0.85;0.68;;;16.20;99.90;;;;;;4987707;28;20038;-72
2023/08/11 06:08:32;;;;;;;0.98;0.80;;;16.30;99.90;;;;;;4979703;28;20124;-72
2023/08/11 06:10:58;;;;;;;0.60;0.60;;;16.40;99.90;;;;;;4994727;28;20129;-72
2023/08/11 06:13:23;;;;;;;0.65;0.65;;;16.20;99.90;;;;;;4983469;28;20114;-72
2023/08/11 06:15:50;;;;;;;0.38;0.38;;;16.40;99.90;;;;;;4968094;28;20115;-72
2023/08/11 06:18:19;;;;;;;0.40;0.40;;;16.40;99.90;;;;;;4978353;28;20088;-72
2023/08/11 06:20:45;;;;;;;0.20;0.20;;;16.50;99.90;;;;;;4995102;28;20038;-72
2023/08/11 06:23:12;;;;;;;0.30;0.30;;;16.80;99.90;;;;;;4977925;28;20054;-72
2023/08/11 06:25:38;;;;;;;2.78;1.05;;;16.70;99.90;;;;;;4990456;28;20046;-72
2023/08/11 06:28:04;;;;;;;1.75;1.05;;;16.80;99.90;;;;;;4980619;28;20089;-72
2023/08/11 06:30:30;;;;;;;0.70;0.70;;;16.70;99.90;;;;;;4968921;28;20046;-73
2023/08/11 06:32:56;;;;;;;0.57;0.57;;;17.00;99.90;;;;;;4985142;28;21718;-72
2023/08/11 06:35:22;;;;;;;0.40;0.40;;;17.20;99.90;;;;;;4977378;28;20035;-72
2023/08/11 06:37:48;;;;;;;0.82;0.82;;;17.20;99.90;;;;;;4986156;28;20072;-73
2023/08/11 06:40:14;;;;;;;0.88;0.65;;;17.20;99.90;;;;;;4982670;28;20061;-72
2023/08/11 06:42:40;;;;;;;0.45;0.45;;;17.20;99.90;;;;;;4976810;28;20089;-72
2023/08/11 06:45:06;;;;;;;0.30;0.30;;;17.50;99.90;;;;;;4992674;28;20092;-72
2023/08/11 06:47:34;;;;;;;1.40;1.30;;;17.80;99.90;;;;;;4970550;28;20482;-73
2023/08/11 06:50:00;;;;;;;;;;;17.60;99.90;;;;;;4988958;28;20129;-73
2023/08/11 06:52:26;;;;;;;0.43;0.43;;;;;;;;;;4995353;28;20004;-72
2023/08/11 06:54:53;;;;;;;0.40;0.40;;;;;;;;;;4993153;28;20101;-71
2023/08/11 06:57:20;;;;;;;0.85;0.85;;;18.00;99.90;;;;;;4998223;28;20052;-72
2023/08/11 06:59:47;;;;;;;1.35;0.98;;;18.40;99.90;;;;;;4986908;28;20402;-71
2023/08/11 07:02:12;;;;;;;0.80;0.80;;;18.70;99.90;;;;;;4974989;28;20042;-71
2023/08/11 07:04:39;;;;;;;0.60;0.60;;;18.50;99.90;;;;;;4977171;28;20050;-71
2023/08/11 07:07:05;;;;;;;0.70;0.70;;;18.80;99.90;;;;;;4976200;28;20117;-72
2023/08/11 07:09:33;;;;;;;0.77;0.77;;;19.50;99.90;;;;;;4975538;28;20050;-72
2023/08/11 07:11:59;;;;;;;0.68;0.60;;;19.30;99.90;;;;;;4983984;28;20038;-71
2023/08/11 07:14:26;;;;;;;0.82;0.82;;;19.50;99.90;;;;;;4986925;28;20458;-71
2023/08/11 07:16:51;;;;;;;0.73;0.73;;;20.00;99.90;;;;;;4985781;28;20038;-71
2023/08/11 07:19:18;;;;;;;0.52;0.52;;;19.90;99.90;;;;;;4985257;28;20038;-72
2023/08/11 07:21:44;;;;;;;0.73;0.73;;;20.30;99.90;;;;;;4991218;28;20049;-70
2023/08/11 07:24:10;;;;;;;0.68;0.68;;;20.60;99.90;;;;;;4986742;28;20050;-70
2023/08/11 07:26:36;;;;;;;1.05;0.93;;;20.60;99.90;;;;;;5000673;28;20503;-70
2023/08/11 07:29:02;;;;;;;0.63;0.63;;;20.90;99.90;;;;;;4986953;28;20042;-70
2023/08/11 07:31:28;;;;;;;0.80;0.80;;;21.10;99.90;;;;;;4990806;28;20046;-70
2023/08/11 07:33:54;;;;;;;0.63;0.63;;;;;;;;;;4969426;28;20422;-68
2023/08/11 07:36:20;;;;;;;1.00;1.00;;;21.70;99.90;;;;;;4977177;28;20038;-72
2023/08/11 07:38:46;;;;;;;0.45;0.45;;;21.80;99.90;;;;;;4977918;28;20034;-72
2023/08/11 07:41:12;;;;;;;0.30;0.30;;;22.30;99.90;;;;;;4982136;28;20577;-72
2023/08/11 07:43:38;;;;;;;0.73;0.65;;;22.30;99.90;;;;;;4991665;28;20124;-71
2023/08/11 07:46:04;;;;;;;0.50;0.50;;;22.90;99.90;;;;;;4963511;28;20038;-73
2023/08/11 07:48:30;;;;;;;1.63;1.52;;;22.60;99.90;;;;;;4967861;28;20042;-73
2023/08/11 07:50:56;;;;;;;0.85;0.85;;;22.80;99.90;;;;;;4995006;28;20054;-72
2023/08/11 07:53:21;;;;;;;0.85;0.75;;;23.00;99.90;;;;;;4988495;28;20034;-72
2023/08/11 07:55:47;;;;;;;0.35;0.35;;;23.30;99.90;;;;;;4989389;28;20042;-72
2023/08/11 07:58:13;;;;;;;0.50;0.43;;;23.20;99.90;;;;;;4982732;28;20036;-72
2023/08/11 08:00:39;;;;;;;1.00;1.00;;;23.40;99.90;;;;;;4986597;28;20092;-72
2023/08/11 08:03:04;;;;;;;0.45;0.45;;;23.90;99.90;;;;;;4995507;28;20038;-73
2023/08/11 08:05:31;;;;;;;0.52;0.52;;;24.20;99.90;;;;;;4976627;28;20130;-72
2023/08/11 08:07:57;;;;;;;0.50;0.50;;;24.30;99.90;;;;;;4988436;28;20038;-72
2023/08/11 08:10:24;;;;;;;0.30;0.30;;;24.00;99.90;;;;;;4967589;28;20073;-72
2023/08/11 08:12:51;;;;;;;;;;;24.50;99.90;;;;;;4995752;28;20153;-72
2023/08/11 08:15:17;;;;;;;0.50;0.50;;;;;;;;;;4982045;28;20008;-73
2023/08/11 08:17:42;;;;;;;0.95;0.95;;;24.80;99.90;;;;;;4984257;28;20125;-74
2023/08/11 08:20:09;;;;;;;1.60;1.45;;;24.50;99.90;;;;;;4972072;28;20046;-73
2023/08/11 08:22:36;;;;;;;3.10;1.08;;;24.80;99.90;;;;;;4983771;28;20038;-73
2023/08/11 08:25:08;;;;;;;1.30;1.20;;;25.30;99.90;;;;;;4986786;28;20089;-73
2023/08/11 08:27:35;;;;;;;0.73;0.73;;;;;;;;;;4983796;28;20038;-73
2023/08/11 08:30:01;;;;;;;1.90;1.80;;;;;;;;;;4988120;28;20073;-73
2023/08/11 08:32:29;;;;;;;0.30;0.30;;;;;;;;;;4978553;28;20066;-73
2023/08/11 08:34:55;;;;;;;0.75;0.75;;;25.40;99.90;;;;;;4970560;28;20057;-73
2023/08/11 08:37:21;;;;;;;0.55;0.55;;;25.60;99.90;;;;;;4994996;28;20535;-73
2023/08/11 08:39:50;;;;;;;1.08;1.00;;;25.80;99.90;;;;;;4980272;28;20055;-73
2023/08/11 08:42:17;;;;;;;0.68;0.68;;;25.90;99.90;;;;;;4982123;28;20096;-73
2023/08/11 08:44:45;;;;;;;1.20;1.20;;;26.10;99.90;;;;;;4991930;28;20505;-73
2023/08/11 08:47:12;;;;;;;0.40;0.40;;;26.10;99.90;;;;;;4992005;28;20042;-73
2023/08/11 08:49:39;;;;;;;1.08;1.00;;;26.30;99.90;;;;;;4998393;28;20122;-73
2023/08/11 08:52:06;;;;;;;0.80;0.80;;;26.40;99.90;;;;;;4991387;28;20073;-73
2023/08/11 08:54:36;;;;;;;0.50;0.50;;;26.90;99.90;;;;;;4983903;28;20125;-73
2023/08/11 08:57:04;;;;;;;0.88;0.88;;;26.80;99.90;;;;;;4985994;28;20039;-72
2023/08/11 08:59:30;;;;;;;0.85;0.85;;;26.20;99.90;;;;;;4971167;28;20051;-75
2023/08/11 09:01:57;;;;;;;0.75;0.75;;;;;;;;;;4984655;28;20094;-72
2023/08/11 09:04:23;;;;;;;1.83;1.73;;;26.90;99.90;;;;;;4987163;28;20042;-75
2023/08/11 09:06:51;;;;;;;0.95;0.60;;;26.90;99.90;;;;;;4991437;28;20128;-75
2023/08/11 09:09:16;;;;;;;1.08;0.98;;;27.00;99.90;;;;;;4980590;28;20189;-75
2023/08/11 09:11:43;;;;;;;1.08;1.08;;;27.00;99.90;;;;;;4983962;28;20490;-74
2023/08/11 09:14:09;;;;;;;0.93;0.93;;;27.40;99.90;;;;;;4972593;28;20078;-75
2023/08/11 09:16:37;;;;;;;0.77;0.77;;;27.20;99.90;;;;;;4999346;28;20035;-75
2023/08/11 09:19:04;;;;;;;0.40;0.40;;;27.30;99.90;;;;;;4988325;28;20046;-75
2023/08/11 09:21:30;;;;;;;0.90;0.90;;;27.40;99.90;;;;;;4980398;28;20104;-73
2023/08/11 09:23:56;;;;;;;0.68;0.68;;;27.40;99.90;;;;;;4991765;28;20402;-75
2023/08/11 09:26:24;;;;;;;0.73;0.73;;;27.60;99.90;;;;;;5001091;28;20391;-74
2023/08/11 09:28:53;;;;;;;0.55;0.55;;;27.80;99.90;;;;;;4988188;28;20054;-74
2023/08/11 09:31:23;;;;;;;0.93;0.77;;;28.00;99.90;;;;;;4999481;28;20038;-74
2023/08/11 09:33:50;;;;;;;0.60;0.60;;;28.40;99.90;;;;;;4983323;28;20426;-74
2023/08/11 09:36:17;;;;;;;0.40;0.40;;;28.40;99.90;;;;;;4975767;28;20436;-73
2023/08/11 09:38:48;;;;;;;0.40;0.40;;;28.10;99.90;;;;;;4991684;28;20278;-72
2023/08/11 09:41:14;;;;;;;0.93;0.93;;;28.40;99.90;;;;;;4986873;28;20045;-74
2023/08/11 09:43:50;;;;;;;0.77;0.77;;;28.20;99.90;;;;;;5004855;28;20041;-73
2023/08/11 09:46:16;;;;;;;0.88;0.88;;;28.40;99.90;;;;;;4974213;28;20039;-73
2023/08/11 09:48:42;;;;;;;0.70;0.70;;;28.60;99.90;;;;;;4980042;28;20062;-72
2023/08/11 09:51:10;;;;;;;0.60;0.60;;;28.70;99.90;;;;;;5012537;28;20088;-72
2023/08/11 09:53:40;;;;;;;0.68;0.68;;;28.60;99.90;;;;;;4980921;28;20650;-72
2023/08/11 09:56:07;;;;;;;0.93;0.93;;;29.10;99.90;;;;;;4988329;28;20105;-71
2023/08/11 09:58:37;;;;;;;1.63;1.52;;;29.30;99.90;;;;;;4980459;28;20039;-72
2023/08/11 10:01:05;;;;;;;0.70;0.70;;;29.30;99.90;;;;;;4977587;28;20045;-73
2023/08/11 10:03:33;;;;;;;1.02;0.65;;;;;;;;;;4990636;28;20042;-72
2023/08/11 10:06:01;;;;;;;0.80;0.80;;;;;;;;;;4987967;28;20042;-72
2023/08/11 10:08:29;;;;;;;2.05;0.75;;;29.50;99.90;;;;;;4989961;28;20034;-72
2023/08/11 10:10:55;;;;;;;0.65;0.65;;;;;;;;;;5002141;28;20047;-72
2023/08/11 10:13:28;;;;;;;0.73;0.73;;;29.60;99.90;;;;;;4978486;28;20088;-73
2023/08/11 10:15:55;;;;;;;0.57;0.57;;;;;;;;;;4988696;28;20046;-72
2023/08/11 10:18:21;;;;;;;0.63;0.63;;;29.90;99.90;;;;;;5000824;28;20080;-72
2023/08/11 10:20:51;;;;;;;0.70;0.70;;;29.80;99.90;;;;;;4986767;28;20046;-72
2023/08/11 10:23:20;;;;;;;0.80;0.80;;;30.00;99.90;;;;;;4960191;28;20488;-72
2023/08/11 10:25:46;;;;;;;0.95;0.95;;;30.10;99.90;;;;;;4996363;28;20045;-72
2023/08/11 10:28:13;;;;;;;0.35;0.35;;;30.10;99.90;;;;;;4986595;28;20041;-75
2023/08/11 10:30:40;;;;;;;0.50;0.50;;;30.20;99.90;;;;;;4983729;28;20097;-75
2023/08/11 10:33:08;;;;;;;0.30;0.30;;;30.00;99.90;;;;;;4966192;28;20448;-72
2023/08/11 10:35:48;;;;;;;0.45;0.45;;;30.10;99.90;;;;;;4973207;28;20038;-71
2023/08/11 10:38:31;;;;;;;1.30;1.25;;;30.40;99.90;;;;;;4977347;28;20047;-72
2023/08/11 10:41:01;;;;;;;0.60;0.60;;;30.20;99.90;;;;;;4993639;28;20062;-72
2023/08/11 10:43:35;;;;;;;0.93;0.93;;;30.20;99.90;;;;;;4979816;28;20055;-72
2023/08/11 10:46:27;;;;;;;0.75;0.75;;;30.30;99.90;;;;;;4981844;28;20038;-72
2023/08/11 10:48:57;;;;;;;0.52;0.52;;;30.50;99.90;;;;;;4995111;28;20371;-71
2023/08/11 10:51:34;;;;;;;1.25;1.10;;;30.60;99.90;;;;;;4979840;28;20462;-72
2023/08/11 10:54:11;;;;;;;0.50;0.50;;;30.60;99.90;;;;;;4998605;28;20043;-71
2023/08/11 10:56:41;;;;;;;0.70;0.70;;;30.90;99.90;;;;;;4997295;28;20034;-71
2023/08/11 10:59:28;;;;;;;0.60;0.60;;;30.80;99.90;;;;;;4979769;28;20463;-72
2023/08/11 11:01:56;;;;;;;0.50;0.50;;;30.90;99.90;;;;;;4977132;28;20050;-72
2023/08/11 11:04:26;;;;;;;0.73;0.73;;;30.90;99.90;;;;;;4999718;28;20093;-72
2023/08/11 11:06:51;;;;;;;0.50;0.50;;;31.10;99.90;;;;;;4988573;28;20086;-71
2023/08/11 11:09:17;;;;;;;0.80;0.80;;;30.80;99.90;;;;;;4968785;28;20116;-72
2023/08/11 11:11:44;;;;;;;1.10;0.85;;;30.80;99.90;;;;;;4972288;28;20034;-71
2023/08/11 11:14:11;;;;;;;0.73;0.73;;;31.20;99.90;;;;;;4981518;28;20105;-71
2023/08/11 11:16:37;;;;;;;;;;;31.00;99.90;;;;;;4980992;28;20122;-73
2023/08/11 11:19:05;;;;;;;0.50;0.50;;;31.30;99.90;;;;;;4985011;28;20461;-72
2023/08/11 11:21:31;;;;;;;0.57;0.57;;;31.30;99.90;;;;;;4982691;28;20046;-71
2023/08/11 11:23:57;;;;;;;0.77;0.77;;;31.30;99.90;;;;;;4974750;28;20896;-72
2023/08/11 11:26:28;;;;;;;0.93;0.88;;;31.20;99.90;;;;;;4969897;28;20133;-72
2023/08/11 11:28:56;;;;;;;0.40;0.40;;;;;;;;;;4977019;28;20049;-72
2023/08/11 11:31:23;;;;;;;0.47;0.47;;;31.40;99.90;;;;;;4982600;28;20038;-73
2023/08/11 11:33:50;;;;;;;0.50;0.50;;;31.60;99.40;;;;;;4982081;28;20049;-73
2023/08/11 11:36:19;;;;;;;0.80;0.75;;;31.30;97.90;;;;;;4977095;28;20049;-70
2023/08/11 11:38:45;;;;;;;0.40;0.40;;;31.40;99.90;;;;;;4971130;28;20475;-74
2023/08/11 11:41:15;;;;;;;0.73;0.73;;;31.40;99.90;;;;;;4980367;28;20053;-73
2023/08/11 11:43:43;;;;;;;1.23;0.65;;;31.60;99.10;;;;;;4976637;28;20548;-74
2023/08/11 11:46:16;;;;;;;0.73;0.73;;;31.90;99.60;;;;;;4970429;28;20031;-73
2023/08/11 11:48:50;;;;;;;0.50;0.50;;;31.80;98.20;;;;;;4972455;28;20168;-73
2023/08/11 11:51:17;;;;;;;0.60;0.60;;;32.30;99.30;;;;;;4966502;28;20119;-73
2023/08/11 11:53:44;;;;;;;0.35;0.35;;;32.20;99.20;;;;;;4982712;28;20040;-72
2023/08/11 11:56:16;;;;;;;0.60;0.60;;;32.40;98.00;;;;;;4978874;28;20132;-73
2023/08/11 11:58:43;;;;;;;0.30;0.30;;;33.40;99.90;;;;;;4998058;28;20054;-73
2023/08/11 12:01:31;;;;;;;0.75;0.75;;;32.50;99.90;;;;;;4974796;28;20035;-73
2023/08/11 12:03:58;;;;;;;0.52;0.52;;;;;;;;;;4987017;28;20065;-73
2023/08/11 12:06:26;;;;;;;0.50;0.50;;;31.90;95.40;;;;;;4970855;28;20152;-73
2023/08/11 12:08:52;;;;;;;0.50;0.50;;;32.20;99.90;;;;;;4984313;28;20038;-72
2023/08/11 12:11:24;;;;;;;0.43;0.43;;;32.10;97.70;;;;;;4987686;28;20121;-72
2023/08/11 12:13:50;;;;;;;0.57;0.57;;;;;;;;;;4988193;28;20460;-71
2023/08/11 12:16:17;;;;;;;0.50;0.50;;;31.90;96.20;;;;;;4976615;28;20073;-72
2023/08/11 12:18:43;;;;;;;0.95;0.95;;;32.40;95.80;;;;;;4975761;28;20038;-72
2023/08/11 12:21:10;;;;;;;0.33;0.33;;;32.30;94.70;;;;;;4966119;28;20116;-73
2023/08/11 12:23:35;;;;;;;0.90;0.90;;;32.30;96.40;;;;;;4992483;28;20553;-72
2023/08/11 12:26:02;;;;;;;0.30;0.30;;;32.20;96.80;;;;;;4982479;28;20042;-73
2023/08/11 12:28:28;;;;;;;0.55;0.55;;;32.30;96.40;;;;;;4981440;28;20402;-71
2023/08/11 12:30:54;;;;;;;0.77;0.75;;;;;;;;;;4981432;28;20070;-71
2023/08/11 12:33:21;;;;;;;2.10;0.70;;;;;;;;;;4979057;28;20045;-71
2023/08/11 12:35:48;;;;;;;0.47;0.47;;;32.50;96.40;;;;;;4990698;28;20608;-69
2023/08/11 12:38:15;;;;;;;0.40;0.40;;;32.20;96.60;;;;;;4997304;28;20121;-71
2023/08/11 12:40:45;;;;;;;0.68;0.68;;;32.30;96.50;;;;;;4971906;28;20078;-73
2023/08/11 12:43:12;;;;;;;0.60;0.60;;;32.60;95.80;;;;;;5002471;28;20469;-73
2023/08/11 12:45:42;;;;;;;0.77;0.77;;;32.60;96.10;;;;;;4985669;28;20462;-72
2023/08/11 12:48:08;;;;;;;0.43;0.43;;;32.90;95.50;;;;;;4983932;28;20052;-71
2023/08/11 12:50:36;;;;;;;0.40;0.40;;;;;;;;;;4966681;28;20043;-73
2023/08/11 12:53:04;;;;;;;0.50;0.50;;;;;;;;;;4978688;28;20446;-72
2023/08/11 12:55:30;;;;;;;0.50;0.50;;;;;;;;;;4966172;28;20101;-72
2023/08/11 12:57:57;;;;;;;0.70;0.70;;;;;;;;;;4985357;28;20046;-72
2023/08/11 13:00:24;;;;;;;0.60;0.60;;;32.60;94.10;;;;;;4970228;28;20046;-70
2023/08/11 13:02:51;;;;;;;0.85;0.75;;;;;;;;;;4987580;28;20133;-72
2023/08/11 13:05:17;;;;;;;0.80;0.80;;;;;;;;;;4972945;28;20422;-72
2023/08/11 13:07:43;;;;;;;1.03;0.93;;;;;;;;;;4987566;28;20661;-70
2023/08/11 13:10:12;;;;;;;9.63;1.00;;;32.70;94.90;;;;;;4999691;28;20353;-72
2023/08/11 13:12:39;;;;;;;0.50;0.50;;;32.30;94.90;;;;;;4984395;28;20394;-69
2023/08/11 13:15:06;;;;;;;0.70;0.70;;;32.10;93.20;;;;;;4993985;28;20502;-72
2023/08/11 13:17:32;;;;;;;0.45;0.45;;;32.20;94.30;;;;;;4957945;28;20026;-72